Newport Municipal Airport
KONP : now visible

Airfield :











YOU CAN JOIN US ON...

 
LOGIN :

Register | Disclaimer

   EN    FR    IT 

 









Legend :    VFR   Marginal VFR   IFR   Intensive IFR   Very Intensive IFR
Visi :
Ceiling :
>= 8 km
>= 3000ft
5 to 8 km
1000 to 3000 ft
1500m to 5 km
500 to 1000 ft
800 to 1500m
200 to 500 ft
< 800m
< 200 ft
Symbols :   Thunderstorms  Fog  Heavy snow  Heavy precipitations  Wind > 20 kt






- Airport Elevation : 160 ft


KONP - Newport Municipal

CURRENT METAR :
  • 170055Z AUTO 33011KT 10SM SCT023 BKN029 BKN060 13/08 A3007 RMK AO2

EXPIRED METARs :
  • 170035Z AUTO 34010G15KT 10SM SCT021 BKN026 BKN034 13/09 A3007 RMK AO2
  • 170015Z AUTO 34009KT 10SM SCT019 BKN034 BKN065 13/09 A3007 RMK AO2
  • 162335Z AUTO 31009KT 10SM CLR 14/08 A3007 RMK AO2
  • 162315Z AUTO 30007KT 10SM CLR 15/08 A3007 RMK AO2
  • 162255Z AUTO 29008KT 10SM CLR 15/09 A3007 RMK AO2
  • 162235Z AUTO 30007KT 10SM CLR 13/09 A3007 RMK AO2
  • 162215Z AUTO 32007KT 10SM SCT110 14/10 A3007 RMK AO2
  • 162155Z AUTO 31008KT 10SM BKN120 13/09 A3008 RMK AO2
  • 162135Z AUTO 29008KT 10SM SCT120 13/10 A3008 RMK AO2
  • 162115Z AUTO 29005KT 10SM SCT065 SCT075 BKN120 13/09 A3009 RMK AO2
  • 162055Z AUTO 30005KT 10SM SCT047 SCT070 BKN080 13/08 A3009 RMK AO2
  • 162035Z AUTO 30005KT 10SM SCT049 BKN055 OVC080 13/10 A3009 RMK AO2

TAF KONP
Valid from the 17 at 00:00 until the 18 at 00:00 UTC


162320Z 1700/1724 29008KT P6SM SKC
FM170500 35006KT P6SM FEW170
FM171000 VRB03KT 6SM BR BKN060
FM171900 31007KT P6SM BKN040
KZSE FIR / North America



MET'MAP, your aeronautical weather chart ! - Copyright ORBIFLY December 2007 - Disclaimer

ORBIFLY MET'MAP TEAM :

Programming & Development : Alexandra Zaïnal
Original concept : Baudouin d'Aumeries
Technical & hardware support : Manuel Goepfert
Assistance : Marc-Olivier Méhu




SOURCES & CREDITS :

   NOAA       Earth
Advisory